Palmyra, VA (22963)

3:59 AM EST on December 07, 2016 (GMT -0500)
Palmyra | | Change Station

Elev 377 ft 37.87 °N, 78.18 °W | Updated 21 seconds ago

Overcast
Overcast
39.7 °F
Feels Like 40 °F
N
0.0
Wind Variable Wind from SW
Gusts 0.0 mph

Today
High -- | Low -- °F
--% Chance of Precip.
Yesterday
High -- | Low -- °F
Precip. -- in
Pressure 29.90 in
Visibility 10.0 miles
Clouds Overcast 1400 ft
Windchill 40 °F
Dew Point 40 °F
Humidity 99%
Rainfall 0.00 in
Snow Depth Not available.
7:15 AM 4:53 PM
Waxing Crescent, 50% visible
METAR KLKU 070835Z AUTO 00000KT 10SM OVC014 08/07 A2990 RMK AO2
Pressure 29.90 in
Visibility 10.0 miles
Clouds Overcast 1400 ft
Windchill 40 °F
Dew Point 40 °F
Humidity 99%
Rainfall 0.00 in
Snow Depth Not available.
7:15 AM 4:53 PM
Waxing Crescent, 50% visible
METAR KLKU 070835Z AUTO 00000KT 10SM OVC014 08/07 A2990 RMK AO2

10-Day Weather Forecast

Almanac

Astronomy

Dec. 07, 2016 Rise Set
Actual Time
Civil Twilight
Nautical Twilight
Astronomical Twilight
Moon
Length of Visible Light
Length of Day
Tomorrow will be .
, % of the Moon is Illuminated

Today's Extremes

State Highs State Lows

Community

WunderPhotos

Upload Photos

1,956,104 photos uploaded!

WunderBlog® & News

Nearby

Air Quality

  Air Quality AQ Index Pollutant
Not available.

Snow Depth

Station Depth Elevation

Earthquake Activity

City Distance Mag. Time & Date
Minimum magnitude displayed is 2.5.

Coastal Water Temperatures

Place Temperature

Stations

Nearby Weather Stations

Station Location Temp. Windchill Dew Point Humidity Wind Precip. Elev Updated Type
                   

Watches & Warnings

There are currently no watches in effect.